sensor_id;sensor_type;location;lat;lon;timestamp;pressure;altitude;pressure_sealevel;temperature
60936;BMP280;46804;51.786;19.520;2023-05-21T00:03:00;158052.75;;;15.07
60936;BMP280;46804;51.786;19.520;2023-05-21T00:07:01;158038.56;;;15.02
60936;BMP280;46804;51.786;19.520;2023-05-21T00:11:01;158014.13;;;14.93
60936;BMP280;46804;51.786;19.520;2023-05-21T00:15:02;158014.13;;;14.93
60936;BMP280;46804;51.786;19.520;2023-05-21T00:19:03;158012.84;;;14.92
60936;BMP280;46804;51.786;19.520;2023-05-21T00:23:04;157992.22;;;14.84
60936;BMP280;46804;51.786;19.520;2023-05-21T00:27:05;157985.78;;;14.82
60936;BMP280;46804;51.786;19.520;2023-05-21T00:31:05;157957.47;;;14.71
60936;BMP280;46804;51.786;19.520;2023-05-21T00:35:07;157951.03;;;14.68
60936;BMP280;46804;51.786;19.520;2023-05-21T00:39:07;157953.59;;;14.69
60936;BMP280;46804;51.786;19.520;2023-05-21T00:43:08;157957.47;;;14.71
60936;BMP280;46804;51.786;19.520;2023-05-21T00:47:11;157934.31;;;14.62
60936;BMP280;46804;51.786;19.520;2023-05-21T00:51:14;157922.72;;;14.58
60936;BMP280;46804;51.786;19.520;2023-05-21T00:55:15;157916.31;;;14.55
60936;BMP280;46804;51.786;19.520;2023-05-21T00:59:15;157890.53;;;14.45
60936;BMP280;46804;51.786;19.520;2023-05-21T01:03:16;157878.97;;;14.41
60936;BMP280;46804;51.786;19.520;2023-05-21T01:07:18;157873.81;;;14.39
60936;BMP280;46804;51.786;19.520;2023-05-21T01:11:19;157893.09;;;14.46
60936;BMP280;46804;51.786;19.520;2023-05-21T01:15:21;157846.75;;;14.28
60936;BMP280;46804;51.786;19.520;2023-05-21T01:19:22;157837.78;;;14.25
60936;BMP280;46804;51.786;19.520;2023-05-21T01:23:23;157827.47;;;14.21
60936;BMP280;46804;51.786;19.520;2023-05-21T01:27:24;157831.38;;;14.23
60936;BMP280;46804;51.786;19.520;2023-05-21T01:31:29;157827.47;;;14.21
60936;BMP280;46804;51.786;19.520;2023-05-21T01:35:41;157815.91;;;14.17
60936;BMP280;46804;51.786;19.520;2023-05-21T01:39:47;157790.16;;;14.07
60936;BMP280;46804;51.786;19.520;2023-05-21T01:43:51;157778.56;;;14.02
60936;BMP280;46804;51.786;19.520;2023-05-21T01:47:54;157759.25;;;13.95
60936;BMP280;46804;51.786;19.520;2023-05-21T01:51:56;157747.66;;;13.91
60936;BMP280;46804;51.786;19.520;2023-05-21T01:55:56;157730.94;;;13.84
60936;BMP280;46804;51.786;19.520;2023-05-21T01:59:59;157751.53;;;13.92
60936;BMP280;46804;51.786;19.520;2023-05-21T02:04:00;157729.66;;;13.84
60936;BMP280;46804;51.786;19.520;2023-05-21T02:08:01;157727.06;;;13.83
60936;BMP280;46804;51.786;19.520;2023-05-21T02:12:02;157718.09;;;13.79
60936;BMP280;46804;51.786;19.520;2023-05-21T02:16:03;157720.66;;;13.80
60936;BMP280;46804;51.786;19.520;2023-05-21T02:20:05;157685.91;;;13.67
60936;BMP280;46804;51.786;19.520;2023-05-21T02:24:12;157684.63;;;13.66
60936;BMP280;46804;51.786;19.520;2023-05-21T02:28:13;157682.03;;;13.65
60936;BMP280;46804;51.786;19.520;2023-05-21T02:32:13;157689.78;;;13.68
60936;BMP280;46804;51.786;19.520;2023-05-21T02:36:14;157671.75;;;13.61
60936;BMP280;46804;51.786;19.520;2023-05-21T02:40:18;157647.31;;;13.52
60936;BMP280;46804;51.786;19.520;2023-05-21T02:44:19;157649.91;;;13.53
60936;BMP280;46804;51.786;19.520;2023-05-21T02:48:20;157643.50;;;13.51
60936;BMP280;46804;51.786;19.520;2023-05-21T02:52:20;157637.03;;;13.48
60936;BMP280;46804;51.786;19.520;2023-05-21T02:56:22;157644.78;;;13.51
60936;BMP280;46804;51.786;19.520;2023-05-21T03:00:22;157637.03;;;13.48
60936;BMP280;46804;51.786;19.520;2023-05-21T03:04:23;157635.75;;;13.48
60936;BMP280;46804;51.786;19.520;2023-05-21T03:08:24;157642.16;;;13.50
60936;BMP280;46804;51.786;19.520;2023-05-21T03:12:25;157643.50;;;13.51
60936;BMP280;46804;51.786;19.520;2023-05-21T03:16:26;157669.19;;;13.60
60936;BMP280;46804;51.786;19.520;2023-05-21T03:20:28;157660.16;;;13.57
60936;BMP280;46804;51.786;19.520;2023-05-21T03:24:28;157657.63;;;13.56
60936;BMP280;46804;51.786;19.520;2023-05-21T03:28:33;157656.34;;;13.56
60936;BMP280;46804;51.786;19.520;2023-05-21T03:32:34;157660.16;;;13.57
60936;BMP280;46804;51.786;19.520;2023-05-21T03:36:37;157682.03;;;13.65
60936;BMP280;46804;51.786;19.520;2023-05-21T03:40:37;157688.47;;;13.68
60936;BMP280;46804;51.786;19.520;2023-05-21T03:44:38;157688.47;;;13.68
60936;BMP280;46804;51.786;19.520;2023-05-21T03:48:39;157697.50;;;13.71
60936;BMP280;46804;51.786;19.520;2023-05-21T03:52:40;157720.66;;;13.80
60936;BMP280;46804;51.786;19.520;2023-05-21T03:56:40;157733.50;;;13.85
60936;BMP280;46804;51.786;19.520;2023-05-21T04:00:41;157750.22;;;13.91
60936;BMP280;46804;51.786;19.520;2023-05-21T04:04:42;157748.94;;;13.91
60936;BMP280;46804;51.786;19.520;2023-05-21T04:08:43;157777.28;;;14.02
60936;BMP280;46804;51.786;19.520;2023-05-21T04:12:44;157795.31;;;14.09
60936;BMP280;46804;51.786;19.520;2023-05-21T04:16:45;157828.75;;;14.22
60936;BMP280;46804;51.786;19.520;2023-05-21T04:20:48;157859.69;;;14.33
60936;BMP280;46804;51.786;19.520;2023-05-21T04:24:49;157882.84;;;14.42
60936;BMP280;46804;51.786;19.520;2023-05-21T04:28:50;157909.81;;;14.53
60936;BMP280;46804;51.786;19.520;2023-05-21T04:32:50;157929.16;;;14.60
60936;BMP280;46804;51.786;19.520;2023-05-21T04:36:52;157965.19;;;14.74
60936;BMP280;46804;51.786;19.520;2023-05-21T04:40:53;158001.22;;;14.88
60936;BMP280;46804;51.786;19.520;2023-05-21T04:44:55;158021.81;;;14.95
60936;BMP280;46804;51.786;19.520;2023-05-21T04:48:58;158033.41;;;15.00
60936;BMP280;46804;51.786;19.520;2023-05-21T04:53:02;158063.06;;;15.11
60936;BMP280;46804;51.786;19.520;2023-05-21T04:57:03;158094.00;;;15.23
60936;BMP280;46804;51.786;19.520;2023-05-21T05:01:04;158127.47;;;15.36
60936;BMP280;46804;51.786;19.520;2023-05-21T05:05:05;158141.63;;;15.41
60936;BMP280;46804;51.786;19.520;2023-05-21T05:09:06;158184.16;;;15.58
60936;BMP280;46804;51.786;19.520;2023-05-21T05:13:07;158208.59;;;15.67
60936;BMP280;46804;51.786;19.520;2023-05-21T05:17:07;158240.81;;;15.79
60936;BMP280;46804;51.786;19.520;2023-05-21T05:21:09;158280.75;;;15.95
60936;BMP280;46804;51.786;19.520;2023-05-21T05:25:10;158311.66;;;16.06
60936;BMP280;46804;51.786;19.520;2023-05-21T05:29:10;158361.97;;;16.26
60936;BMP280;46804;51.786;19.520;2023-05-21T05:33:11;158421.22;;;16.48
60936;BMP280;46804;51.786;19.520;2023-05-21T05:37:13;158484.38;;;16.72
60936;BMP280;46804;51.786;19.520;2023-05-21T05:41:13;158538.53;;;16.93
60936;BMP280;46804;51.786;19.520;2023-05-21T05:45:14;158600.50;;;17.17
60936;BMP280;46804;51.786;19.520;2023-05-21T05:49:15;158679.16;;;17.47
60936;BMP280;46804;51.786;19.520;2023-05-21T05:53:16;158732.03;;;17.67
60936;BMP280;46804;51.786;19.520;2023-05-21T05:57:16;158792.66;;;17.90
60936;BMP280;46804;51.786;19.520;2023-05-21T06:01:17;158855.94;;;18.14
60936;BMP280;46804;51.786;19.520;2023-05-21T06:05:18;158983.66;;;18.63
60936;BMP280;46804;51.786;19.520;2023-05-21T06:09:19;159070.19;;;18.96
60936;BMP280;46804;51.786;19.520;2023-05-21T06:13:21;159136.06;;;19.21
60936;BMP280;46804;51.786;19.520;2023-05-21T06:17:22;159249.72;;;19.65
60936;BMP280;46804;51.786;19.520;2023-05-21T06:21:23;159322.06;;;19.92
60936;BMP280;46804;51.786;19.520;2023-05-21T06:25:23;159420.28;;;20.30
60936;BMP280;46804;51.786;19.520;2023-05-21T06:29:25;159534.06;;;20.73
60936;BMP280;46804;51.786;19.520;2023-05-21T06:33:25;159651.66;;;21.18
60936;BMP280;46804;51.786;19.520;2023-05-21T06:37:26;159669.75;;;21.25
60936;BMP280;46804;51.786;19.520;2023-05-21T06:41:27;159812.06;;;21.79
60936;BMP280;46804;51.786;19.520;2023-05-21T06:45:28;159858.66;;;21.97
60936;BMP280;46804;51.786;19.520;2023-05-21T06:49:28;159871.56;;;22.02
60936;BMP280;46804;51.786;19.520;2023-05-21T06:53:29;159927.25;;;22.23
60936;BMP280;46804;51.786;19.520;2023-05-21T06:57:29;160015.22;;;22.56
60936;BMP280;46804;51.786;19.520;2023-05-21T07:01:30;160131.72;;;23.01
60936;BMP280;46804;51.786;19.520;2023-05-21T07:05:31;160160.22;;;23.12
60936;BMP280;46804;51.786;19.520;2023-05-21T07:09:32;160331.16;;;23.77
60936;BMP280;46804;51.786;19.520;2023-05-21T07:13:36;160359.66;;;23.87
60936;BMP280;46804;51.786;19.520;2023-05-21T07:17:37;160473.69;;;24.31
60936;BMP280;46804;51.786;19.520;2023-05-21T07:21:37;160429.56;;;24.14
60936;BMP280;46804;51.786;19.520;2023-05-21T07:25:38;160487.97;;;24.36
60936;BMP280;46804;51.786;19.520;2023-05-21T07:29:39;160611.00;;;24.83
60936;BMP280;46804;51.786;19.520;2023-05-21T07:33:39;160535.56;;;25.36
60936;BMP280;46804;51.786;19.520;2023-05-21T07:37:40;160725.13;;;25.26
60936;BMP280;46804;51.786;19.520;2023-05-21T07:41:41;157423.28;;;25.72
60936;BMP280;46804;51.786;19.520;2023-05-21T07:45:42;156289.47;;;25.82
60936;BMP280;46804;51.786;19.520;2023-05-21T07:49:42;150883.16;;;26.18
60936;BMP280;46804;51.786;19.520;2023-05-21T07:53:43;147843.25;;;26.33
60936;BMP280;46804;51.786;19.520;2023-05-21T07:57:44;142948.22;;;26.63
60936;BMP280;46804;51.786;19.520;2023-05-21T08:01:44;148543.81;;;26.29
60936;BMP280;46804;51.786;19.520;2023-05-21T08:05:46;149243.25;;;26.25
60936;BMP280;46804;51.786;19.520;2023-05-21T08:09:50;143300.56;;;26.63
60936;BMP280;46804;51.786;19.520;2023-05-21T08:13:53;136322.16;;;27.10
60936;BMP280;46804;51.786;19.520;2023-05-21T08:17:54;120641.56;;;28.18
60936;BMP280;46804;51.786;19.520;2023-05-21T08:21:54;113344.44;;;28.73
60936;BMP280;46804;51.786;19.520;2023-05-21T08:25:55;113338.97;;;28.70
60936;BMP280;46804;51.786;19.520;2023-05-21T08:29:55;117859.13;;;28.38
60936;BMP280;46804;51.786;19.520;2023-05-21T08:33:56;112994.00;;;28.74
60936;BMP280;46804;51.786;19.520;2023-05-21T08:37:57;117858.19;;;28.37
60936;BMP280;46804;51.786;19.520;2023-05-21T08:42:06;114038.03;;;28.68
60936;BMP280;46804;51.786;19.520;2023-05-21T08:46:09;110906.34;;;28.88
60936;BMP280;46804;51.786;19.520;2023-05-21T08:50:11;100848.41;;;29.70
60936;BMP280;46804;51.786;19.520;2023-05-21T08:54:12;99465.16;;;29.83
60936;BMP280;46804;51.786;19.520;2023-05-21T08:58:13;93576.97;;;30.33
60936;BMP280;46804;51.786;19.520;2023-05-21T09:02:15;93920.22;;;30.28
60936;BMP280;46804;51.786;19.520;2023-05-21T09:06:17;96347.94;;;30.09
60936;BMP280;46804;51.786;19.520;2023-05-21T09:10:22;93923.19;;;30.30
60936;BMP280;46804;51.786;19.520;2023-05-21T09:14:27;108829.78;;;29.08
60936;BMP280;46804;51.786;19.520;2023-05-21T09:18:27;96001.59;;;30.12
60936;BMP280;46804;51.786;19.520;2023-05-21T09:22:28;98074.94;;;29.92
60936;BMP280;46804;51.786;19.520;2023-05-21T09:26:29;88730.47;;;30.74
60936;BMP280;46804;51.786;19.520;2023-05-21T09:30:30;88383.69;;;30.77
60936;BMP280;46804;51.786;19.520;2023-05-21T09:34:34;92189.13;;;30.42
60936;BMP280;46804;51.786;19.520;2023-05-21T09:38:35;92189.88;;;30.43
60936;BMP280;46804;51.786;19.520;2023-05-21T09:42:38;94611.16;;;30.21
60936;BMP280;46804;51.786;19.520;2023-05-21T09:46:40;86310.00;;;30.96
60936;BMP280;46804;51.786;19.520;2023-05-21T09:50:40;78358.88;;;31.69
60936;BMP280;46804;51.786;19.520;2023-05-21T09:54:41;75600.19;;;31.99
60936;BMP280;46804;51.786;19.520;2023-05-21T09:58:42;78014.28;;;31.73
60936;BMP280;46804;51.786;19.520;2023-05-21T10:02:47;82505.97;;;31.30
60936;BMP280;46804;51.786;19.520;2023-05-21T10:06:48;85617.94;;;31.02
60936;BMP280;46804;51.786;19.520;2023-05-21T10:10:50;94615.75;;;30.24
60936;BMP280;46804;51.786;19.520;2023-05-21T10:14:54;96000.09;;;30.11
60936;BMP280;46804;51.786;19.520;2023-05-21T10:18:56;96689.59;;;30.04
60936;BMP280;46804;51.786;19.520;2023-05-21T10:22:58;84232.50;;;31.13
60936;BMP280;46804;51.786;19.520;2023-05-21T10:27:00;81816.03;;;31.38
60936;BMP280;46804;51.786;19.520;2023-05-21T10:31:02;90115.00;;;30.62
60936;BMP280;46804;51.786;19.520;2023-05-21T10:35:04;93576.22;;;30.32
60936;BMP280;46804;51.786;19.520;2023-05-21T10:39:05;85966.03;;;31.01
60936;BMP280;46804;51.786;19.520;2023-05-21T10:43:12;81468.78;;;31.40
60936;BMP280;46804;51.786;19.520;2023-05-21T10:48:12;77326.31;;;31.82
60936;BMP280;46804;51.786;19.520;2023-05-21T10:56:41;81813.41;;;31.36
60936;BMP280;46804;51.786;19.520;2023-05-21T11:00:44;71809.44;;;32.42
60936;BMP280;46804;51.786;19.520;2023-05-21T11:04:46;76631.56;;;31.85
60936;BMP280;46804;51.786;19.520;2023-05-21T11:08:48;72840.34;;;32.28
60936;BMP280;46804;51.786;19.520;2023-05-21T11:13:12;78361.41;;;31.71
60936;BMP280;46804;51.786;19.520;2023-05-21T11:17:38;76290.03;;;31.91
60936;BMP280;46804;51.786;19.520;2023-05-21T11:21:39;74219.97;;;32.13
60936;BMP280;46804;51.786;19.520;2023-05-21T11:25:40;70773.31;;;32.52
60936;BMP280;46804;51.786;19.520;2023-05-21T11:29:42;74909.19;;;32.05
60936;BMP280;46804;51.786;19.520;2023-05-21T11:33:46;78358.28;;;31.68
60936;BMP280;46804;51.786;19.520;2023-05-21T11:37:52;87346.13;;;30.86
60936;BMP280;46804;51.786;19.520;2023-05-21T11:41:58;76633.41;;;31.86
60936;BMP280;46804;51.786;19.520;2023-05-21T11:46:00;72154.06;;;32.38
60936;BMP280;46804;51.786;19.520;2023-05-21T11:50:02;72155.22;;;32.39
60936;BMP280;46804;51.786;19.520;2023-05-21T11:54:03;70777.28;;;32.55
60936;BMP280;46804;51.786;19.520;2023-05-21T11:58:04;66298.03;;;33.08
60936;BMP280;46804;51.786;19.520;2023-05-21T12:02:05;71463.09;;;32.45
60936;BMP280;46804;51.786;19.520;2023-05-21T12:06:06;72495.78;;;32.32
60936;BMP280;46804;51.786;19.520;2023-05-21T12:10:08;66640.53;;;33.02
60936;BMP280;46804;51.786;19.520;2023-05-21T12:14:09;56644.81;;;34.15
60936;BMP280;46804;51.786;19.520;2023-05-21T12:18:10;65606.09;;;33.13
60936;BMP280;46804;51.786;19.520;2023-05-21T12:22:11;64915.78;;;33.20
60936;BMP280;46804;51.786;19.520;2023-05-21T12:26:12;57335.50;;;34.09
60936;BMP280;46804;51.786;19.520;2023-05-21T12:30:13;66642.66;;;33.04
60936;BMP280;46804;51.786;19.520;2023-05-21T12:34:14;69741.69;;;32.66
60936;BMP280;46804;51.786;19.520;2023-05-21T12:38:18;66295.38;;;33.05
60936;BMP280;46804;51.786;19.520;2023-05-21T12:42:25;63882.41;;;33.32
60936;BMP280;46804;51.786;19.520;2023-05-21T12:46:26;71461.97;;;32.44
60936;BMP280;46804;51.786;19.520;2023-05-21T12:50:27;60434.50;;;33.70
60936;BMP280;46804;51.786;19.520;2023-05-21T12:54:33;64226.47;;;33.28
60936;BMP280;46804;51.786;19.520;2023-05-21T12:58:34;59400.09;;;33.82
60936;BMP280;46804;51.786;19.520;2023-05-21T13:06:42;55265.31;;;34.30
60936;BMP280;46804;51.786;19.520;2023-05-21T13:10:44;59055.94;;;33.86
60936;BMP280;46804;51.786;19.520;2023-05-21T13:14:45;68022.91;;;32.89
60936;BMP280;46804;51.786;19.520;2023-05-21T13:18:46;66644.28;;;33.05
60936;BMP280;46804;51.786;19.520;2023-05-21T13:22:49;68708.91;;;32.79
60936;BMP280;46804;51.786;19.520;2023-05-21T13:26:50;60093.25;;;33.78
60936;BMP280;46804;51.786;19.520;2023-05-21T13:30:50;65261.44;;;33.17
60936;BMP280;46804;51.786;19.520;2023-05-21T13:34:54;67330.34;;;32.94
60936;BMP280;46804;51.786;19.520;2023-05-21T13:38:55;71120.78;;;32.51
60936;BMP280;46804;51.786;19.520;2023-05-21T13:42:56;66640.53;;;33.02
60936;BMP280;46804;51.786;19.520;2023-05-21T13:46:57;70429.25;;;32.56
60936;BMP280;46804;51.786;19.520;2023-05-21T13:50:57;75254.38;;;32.02
60936;BMP280;46804;51.786;19.520;2023-05-21T13:54:58;81125.44;;;31.45
60936;BMP280;46804;51.786;19.520;2023-05-21T13:58:59;79052.53;;;31.64
60936;BMP280;46804;51.786;19.520;2023-05-21T14:03:00;87693.59;;;30.84
60936;BMP280;46804;51.786;19.520;2023-05-21T14:07:01;93576.22;;;30.32
60936;BMP280;46804;51.786;19.520;2023-05-21T14:11:02;92536.78;;;30.41
60936;BMP280;46804;51.786;19.520;2023-05-21T14:15:03;103969.06;;;29.44
60936;BMP280;46804;51.786;19.520;2023-05-21T14:19:04;96344.06;;;30.07
60936;BMP280;46804;51.786;19.520;2023-05-21T14:23:05;107089.72;;;29.19
60936;BMP280;46804;51.786;19.520;2023-05-21T14:27:06;100503.59;;;29.74
60936;BMP280;46804;51.786;19.520;2023-05-21T14:31:07;109172.94;;;29.03
60936;BMP280;46804;51.786;19.520;2023-05-21T14:35:07;117857.25;;;28.37
60936;BMP280;46804;51.786;19.520;2023-05-21T14:39:08;129342.19;;;27.55
60936;BMP280;46804;51.786;19.520;2023-05-21T14:43:09;134224.22;;;27.22
60936;BMP280;46804;51.786;19.520;2023-05-21T14:47:10;143299.38;;;26.62
60936;BMP280;46804;51.786;19.520;2023-05-21T14:51:11;138411.84;;;26.95
60936;BMP280;46804;51.786;19.520;2023-05-21T14:55:12;141902.81;;;26.71
60936;BMP280;46804;51.786;19.520;2023-05-21T14:59:15;142255.06;;;26.70
60936;BMP280;46804;51.786;19.520;2023-05-21T15:03:16;147145.09;;;26.38
60936;BMP280;46804;51.786;19.520;2023-05-21T15:07:17;148192.34;;;26.30
60936;BMP280;46804;51.786;19.520;2023-05-21T15:11:18;157279.31;;;25.75
60936;BMP280;46804;51.786;19.520;2023-05-21T15:15:19;156534.63;;;25.80
60936;BMP280;46804;51.786;19.520;2023-05-21T15:19:20;160567.66;;;25.35
60936;BMP280;46804;51.786;19.520;2023-05-21T15:23:21;160709.53;;;25.21
60936;BMP280;46804;51.786;19.520;2023-05-21T15:27:21;160634.38;;;24.92
60936;BMP280;46804;51.786;19.520;2023-05-21T15:31:24;160674.56;;;25.07
60936;BMP280;46804;51.786;19.520;2023-05-21T15:35:25;160678.47;;;25.09
60936;BMP280;46804;51.786;19.520;2023-05-21T15:39:25;160617.47;;;24.86
60936;BMP280;46804;51.786;19.520;2023-05-21T15:43:26;160547.53;;;24.59
60936;BMP280;46804;51.786;19.520;2023-05-21T15:47:27;160548.81;;;24.59
60936;BMP280;46804;51.786;19.520;2023-05-21T15:51:27;160509.94;;;24.45
60936;BMP280;46804;51.786;19.520;2023-05-21T15:55:31;160509.94;;;24.45
60936;BMP280;46804;51.786;19.520;2023-05-21T15:59:32;160535.88;;;24.55
60936;BMP280;46804;51.786;19.520;2023-05-21T16:03:33;160446.41;;;24.20
60936;BMP280;46804;51.786;19.520;2023-05-21T16:07:34;160442.56;;;24.19
60936;BMP280;46804;51.786;19.520;2023-05-21T16:11:34;160465.94;;;24.28
60936;BMP280;46804;51.786;19.520;2023-05-21T16:15:35;160401.09;;;24.03
60936;BMP280;46804;51.786;19.520;2023-05-21T16:19:36;160331.16;;;23.77
60936;BMP280;46804;51.786;19.520;2023-05-21T16:23:37;160315.59;;;23.71
60936;BMP280;46804;51.786;19.520;2023-05-21T16:27:38;160232.72;;;23.39
60936;BMP280;46804;51.786;19.520;2023-05-21T16:31:39;160257.31;;;23.49
60936;BMP280;46804;51.786;19.520;2023-05-21T16:35:39;160265.09;;;23.52
60936;BMP280;46804;51.786;19.520;2023-05-21T16:39:40;160250.84;;;23.46
60936;BMP280;46804;51.786;19.520;2023-05-21T16:43:41;160227.53;;;23.37
60936;BMP280;46804;51.786;19.520;2023-05-21T16:47:42;160148.56;;;23.07
60936;BMP280;46804;51.786;19.520;2023-05-21T16:51:42;160123.97;;;22.98
60936;BMP280;46804;51.786;19.520;2023-05-21T16:55:43;160086.38;;;22.83
60936;BMP280;46804;51.786;19.520;2023-05-21T16:59:44;160050.16;;;22.70
60936;BMP280;46804;51.786;19.520;2023-05-21T17:03:45;159995.84;;;22.49
60936;BMP280;46804;51.786;19.520;2023-05-21T17:07:46;160000.97;;;22.51
60936;BMP280;46804;51.786;19.520;2023-05-21T17:11:47;159993.22;;;22.48
60936;BMP280;46804;51.786;19.520;2023-05-21T17:15:48;159938.91;;;22.27
60936;BMP280;46804;51.786;19.520;2023-05-21T17:19:50;159941.47;;;22.28
60936;BMP280;46804;51.786;19.520;2023-05-21T17:23:50;159880.59;;;22.05
60936;BMP280;46804;51.786;19.520;2023-05-21T17:27:51;159846.97;;;21.92
60936;BMP280;46804;51.786;19.520;2023-05-21T17:31:52;159814.66;;;21.80
60936;BMP280;46804;51.786;19.520;2023-05-21T17:35:53;159801.75;;;21.75
60936;BMP280;46804;51.786;19.520;2023-05-21T17:39:56;159749.97;;;21.55
60936;BMP280;46804;51.786;19.520;2023-05-21T17:43:57;159734.50;;;21.49
60936;BMP280;46804;51.786;19.520;2023-05-21T17:47:57;159655.56;;;21.19
60936;BMP280;46804;51.786;19.520;2023-05-21T17:51:58;159638.75;;;21.13
60936;BMP280;46804;51.786;19.520;2023-05-21T17:56:00;159606.41;;;21.01
60936;BMP280;46804;51.786;19.520;2023-05-21T18:00:03;159565.06;;;20.85
60936;BMP280;46804;51.786;19.520;2023-05-21T18:04:06;159554.72;;;20.81
60936;BMP280;46804;51.786;19.520;2023-05-21T18:08:11;159482.31;;;20.53
60936;BMP280;46804;51.786;19.520;2023-05-21T18:12:12;159451.28;;;20.42
60936;BMP280;46804;51.786;19.520;2023-05-21T18:16:13;159394.41;;;20.20
60936;BMP280;46804;51.786;19.520;2023-05-21T18:20:13;159389.25;;;20.18
60936;BMP280;46804;51.786;19.520;2023-05-21T18:24:14;159351.81;;;20.04
60936;BMP280;46804;51.786;19.520;2023-05-21T18:28:15;159342.75;;;20.00
60936;BMP280;46804;51.786;19.520;2023-05-21T18:32:16;159316.94;;;19.90
60936;BMP280;46804;51.786;19.520;2023-05-21T18:36:17;159281.97;;;19.77
60936;BMP280;46804;51.786;19.520;2023-05-21T18:40:18;159232.91;;;19.58
60936;BMP280;46804;51.786;19.520;2023-05-21T18:44:21;159214.84;;;19.51
60936;BMP280;46804;51.786;19.520;2023-05-21T18:48:22;159172.19;;;19.35
60936;BMP280;46804;51.786;19.520;2023-05-21T18:52:22;159099.94;;;19.07
60936;BMP280;46804;51.786;19.520;2023-05-21T18:56:23;159099.94;;;19.07
60936;BMP280;46804;51.786;19.520;2023-05-21T19:00:24;159062.41;;;18.93
60936;BMP280;46804;51.786;19.520;2023-05-21T19:04:25;159028.84;;;18.80
60936;BMP280;46804;51.786;19.520;2023-05-21T19:08:27;159010.78;;;18.73
60936;BMP280;46804;51.786;19.520;2023-05-21T19:12:28;158935.94;;;18.45
60936;BMP280;46804;51.786;19.520;2023-05-21T19:16:31;158910.09;;;18.35
60936;BMP280;46804;51.786;19.520;2023-05-21T19:20:32;158862.38;;;18.17
60936;BMP280;46804;51.786;19.520;2023-05-21T19:24:33;158786.19;;;17.88
60936;BMP280;46804;51.786;19.520;2023-05-21T19:28:33;158787.50;;;17.88
60936;BMP280;46804;51.786;19.520;2023-05-21T19:32:35;158783.63;;;17.87
60936;BMP280;46804;51.786;19.520;2023-05-21T19:36:36;158756.53;;;17.76
60936;BMP280;46804;51.786;19.520;2023-05-21T19:40:37;158755.25;;;17.76
60936;BMP280;46804;51.786;19.520;2023-05-21T19:44:38;158751.34;;;17.74
60936;BMP280;46804;51.786;19.520;2023-05-21T19:48:42;158716.53;;;17.61
60936;BMP280;46804;51.786;19.520;2023-05-21T19:52:42;158668.84;;;17.43
60936;BMP280;46804;51.786;19.520;2023-05-21T19:56:44;158653.34;;;17.37
60936;BMP280;46804;51.786;19.520;2023-05-21T20:00:45;158573.34;;;17.06
60936;BMP280;46804;51.786;19.520;2023-05-21T20:04:47;158563.03;;;17.02
60936;BMP280;46804;51.786;19.520;2023-05-21T20:08:49;158534.66;;;16.92
60936;BMP280;46804;51.786;19.520;2023-05-21T20:12:51;158545.00;;;16.96
60936;BMP280;46804;51.786;19.520;2023-05-21T20:16:51;158506.31;;;16.81
60936;BMP280;46804;51.786;19.520;2023-05-21T20:20:53;158489.53;;;16.74
60936;BMP280;46804;51.786;19.520;2023-05-21T20:24:54;158476.66;;;16.69
60936;BMP280;46804;51.786;19.520;2023-05-21T20:28:55;158414.78;;;16.46
60936;BMP280;46804;51.786;19.520;2023-05-21T20:32:56;158404.47;;;16.42
60936;BMP280;46804;51.786;19.520;2023-05-21T20:36:56;158396.75;;;16.39
60936;BMP280;46804;51.786;19.520;2023-05-21T20:40:57;158354.25;;;16.23
60936;BMP280;46804;51.786;19.520;2023-05-21T20:44:58;158316.81;;;16.08
60936;BMP280;46804;51.786;19.520;2023-05-21T20:49:01;158296.19;;;16.00
60936;BMP280;46804;51.786;19.520;2023-05-21T20:53:01;158287.19;;;15.97
60936;BMP280;46804;51.786;19.520;2023-05-21T20:57:03;158264.00;;;15.88
60936;BMP280;46804;51.786;19.520;2023-05-21T21:01:05;158236.94;;;15.78
60936;BMP280;46804;51.786;19.520;2023-05-21T21:05:07;158215.03;;;15.69
60936;BMP280;46804;51.786;19.520;2023-05-21T21:09:11;158211.16;;;15.68
60936;BMP280;46804;51.786;19.520;2023-05-21T21:13:12;158186.69;;;15.59
60936;BMP280;46804;51.786;19.520;2023-05-21T21:17:12;158184.16;;;15.58
60936;BMP280;46804;51.786;19.520;2023-05-21T21:21:13;158171.22;;;15.53
60936;BMP280;46804;51.786;19.520;2023-05-21T21:25:14;158148.06;;;15.44
60936;BMP280;46804;51.786;19.520;2023-05-21T21:29:15;158139.06;;;15.40
60936;BMP280;46804;51.786;19.520;2023-05-21T21:33:15;158151.94;;;15.45
60936;BMP280;46804;51.786;19.520;2023-05-21T21:37:16;158132.63;;;15.38
60936;BMP280;46804;51.786;19.520;2023-05-21T21:41:17;158109.47;;;15.29
60936;BMP280;46804;51.786;19.520;2023-05-21T21:45:19;158073.38;;;15.15
60936;BMP280;46804;51.786;19.520;2023-05-21T21:49:20;158081.13;;;15.18
60936;BMP280;46804;51.786;19.520;2023-05-21T21:53:20;158068.22;;;15.13
60936;BMP280;46804;51.786;19.520;2023-05-21T21:57:21;158034.69;;;15.00
60936;BMP280;46804;51.786;19.520;2023-05-21T22:01:23;158039.84;;;15.02
60936;BMP280;46804;51.786;19.520;2023-05-21T22:05:24;158052.75;;;15.07
60936;BMP280;46804;51.786;19.520;2023-05-21T22:09:24;158039.84;;;15.02
60936;BMP280;46804;51.786;19.520;2023-05-21T22:13:25;158011.50;;;14.92
60936;BMP280;46804;51.786;19.520;2023-05-21T22:17:26;158021.81;;;14.95
60936;BMP280;46804;51.786;19.520;2023-05-21T22:21:28;158021.81;;;14.95
60936;BMP280;46804;51.786;19.520;2023-05-21T22:25:32;157985.78;;;14.82
60936;BMP280;46804;51.786;19.520;2023-05-21T22:29:32;157993.50;;;14.85
60936;BMP280;46804;51.786;19.520;2023-05-21T22:33:33;157981.91;;;14.80
60936;BMP280;46804;51.786;19.520;2023-05-21T22:37:34;157956.19;;;14.70
60936;BMP280;46804;51.786;19.520;2023-05-21T22:41:36;157947.16;;;14.67
60936;BMP280;46804;51.786;19.520;2023-05-21T22:45:37;157924.00;;;14.58